Weather at Bilbao Airport

Public forecast

Using degrees Celsius for public forecast. Weather courtesy of forecast.io.

Current aviation weather report (METAR) for Bilbao Airport

2024/04/16 17:00 (retrieved 21 minutes ago)

LEBB 161700Z 31011KT 270V350 9999 SCT030 BKN040 BKN050 13/08 Q1023 NOSIG

Aviation forecast (TAF) for Bilbao Airport

2024/04/16 12:27 (retrieved 5 hours ago)

TAF LEBB 161100Z 1612/1712 31009KT 9999 FEW010 BKN020 TX12/1616Z TN10/1706Z PROB30 TEMPO 1612/1622 3000 DZ BKN010 PROB40 TEMPO 1622/1710 3000 RADZ BKN010